Time;durP1;ratioP1;P1;durP2;ratioP2;P2;SDS_P1;SDS_P2;PMS_P1;PMS_P2;Temp;Humidity;BMP_temperature;BMP_pressure;BME280_temperature;BME280_humidity;BME280_pressure;Samples;Min_cycle;Max_cycle;Signal;HPM_P1;HPM_P2
2022/10/26 00:00:25;;;;;;;5.12;4.75;;;;;;;12.83;100.00;99475.94;1696830;82;21496;-73
2022/10/26 00:02:54;;;;;;;4.80;4.40;;;;;;;12.84;100.00;99481.62;1704952;83;22058;-77
2022/10/26 00:05:22;;;;;;;5.35;4.95;;;;;;;12.84;100.00;99484.31;1717274;82;21019;-76
2022/10/26 00:07:49;;;;;;;7.97;5.20;;;;;;;12.82;100.00;99490.51;1717345;82;21078;-77
2022/10/26 00:10:15;;;;;;;6.17;5.67;;;;;;;12.79;100.00;99483.50;1708757;82;21068;-78
2022/10/26 00:12:42;;;;;;;6.47;5.97;;;;;;;12.75;100.00;99504.01;1690764;84;21761;-76
2022/10/26 00:15:09;;;;;;;6.95;6.35;;;;;;;12.72;100.00;99513.97;1664838;85;21214;-73
2022/10/26 00:17:37;;;;;;;7.85;7.05;;;;;;;12.66;100.00;99503.17;1660759;84;21043;-77
2022/10/26 00:20:04;;;;;;;7.78;7.00;;;;;;;12.64;100.00;99503.99;1687286;83;21073;-71
2022/10/26 00:22:32;;;;;;;10.00;9.10;;;;;;;12.63;100.00;99504.25;1669614;82;21061;-70
2022/10/26 00:24:59;;;;;;;16.80;8.43;;;;;;;12.59;100.00;99506.68;1693994;83;21071;-82
2022/10/26 00:27:26;;;;;;;9.73;8.83;;;;;;;12.57;100.00;99501.27;1704956;81;21190;-74
2022/10/26 00:29:53;;;;;;;9.98;9.08;;;;;;;12.56;100.00;99505.87;1720636;82;21062;-72
2022/10/26 00:32:19;;;;;;;9.33;8.50;;;;;;;12.56;100.00;99515.32;1694688;82;20996;-72
2022/10/26 00:34:46;;;;;;;10.15;8.70;;;;;;;12.51;100.00;99510.45;1720410;82;21039;-73
2022/10/26 00:37:13;;;;;;;9.03;8.13;;;;;;;12.50;100.00;99515.03;1694421;83;21058;-74
2022/10/26 00:39:41;;;;;;;9.08;8.28;;;;;;;12.46;100.00;99519.88;1711090;81;21327;-73
2022/10/26 00:42:16;;;;;;;8.98;8.18;;;;;;;12.41;100.00;99518.52;1689727;84;21082;-74
2022/10/26 00:44:56;;;;;;;11.05;9.95;;;;;;;12.38;100.00;99525.23;1667510;84;21091;-74
2022/10/26 00:47:44;;;;;;;9.73;8.73;;;;;;;12.34;100.00;99512.55;1698466;83;21563;-73
2022/10/26 00:50:19;;;;;;;8.93;8.13;;;;;;;12.31;100.00;99519.83;1706832;83;21094;-73
2022/10/26 00:52:45;;;;;;;8.53;7.75;;;;;;;12.29;100.00;99526.02;1710182;82;21137;-76
2022/10/26 00:55:12;;;;;;;9.55;8.33;;;;;;;12.26;100.00;99512.53;1703851;83;21020;-75
2022/10/26 00:57:38;;;;;;;9.83;8.95;;;;;;;12.24;100.00;99514.14;1695496;83;20988;-77
2022/10/26 01:00:07;;;;;;;9.65;8.73;;;;;;;12.22;100.00;99506.87;1688782;84;21516;-71
2022/10/26 01:02:34;;;;;;;9.08;8.25;;;;;;;12.21;100.00;99504.42;1702632;83;21059;-75
2022/10/26 01:05:02;;;;;;;10.75;8.98;;;;;;;12.23;100.00;99523.30;1685328;83;21787;-72
2022/10/26 01:07:28;;;;;;;9.75;8.48;;;;;;;12.20;100.00;99522.48;1690587;83;21607;-73
2022/10/26 01:09:55;;;;;;;11.97;9.78;;;;;;;12.19;100.00;99514.12;1691188;83;21025;-72
2022/10/26 01:12:22;;;;;;;11.00;10.00;;;;;;;12.19;100.00;99510.61;1691297;84;21040;-71
2022/10/26 01:14:48;;;;;;;11.60;10.38;;;;;;;12.15;100.00;99510.34;1687527;84;21146;-74
2022/10/26 01:17:33;;;;;;;11.73;10.25;;;;;;;12.15;100.00;99510.34;1705335;83;21123;-70
2022/10/26 01:20:31;;;;;;;12.82;11.60;;;;;;;12.17;100.00;99516.28;1721640;83;21520;-71
2022/10/26 01:23:10;;;;;;;12.93;11.55;;;;;;;12.18;100.00;99521.14;1717439;83;21631;-73
2022/10/26 01:25:58;;;;;;;14.05;12.55;;;;;;;12.21;100.00;99504.42;1685573;84;21008;-74
2022/10/26 01:28:59;;;;;;;11.95;10.75;;;;;;;12.21;100.00;99508.47;1638579;84;21079;-78
2022/10/26 01:31:30;;;;;;;12.60;11.40;;;;;;;12.22;100.00;99512.27;1681127;84;21585;-75
2022/10/26 01:34:13;;;;;;;11.70;10.50;;;;;;;12.22;100.00;99510.09;1687627;83;21074;-73
2022/10/26 01:36:59;;;;;;;13.57;9.90;;;;;;;12.26;100.00;99516.58;1716450;82;21083;-76
2022/10/26 01:39:45;;;;;;;11.35;10.18;;;;;;;12.25;100.00;99512.25;1721836;82;21698;-76
2022/10/26 01:42:12;;;;;;;10.70;9.65;;;;;;;12.27;100.00;99526.30;1689026;83;21055;-76
2022/10/26 01:44:59;;;;;;;11.18;10.18;;;;;;;12.26;100.00;99513.07;1711646;83;21094;-79
2022/10/26 01:47:25;;;;;;;10.38;9.38;;;;;;;12.29;100.00;99520.62;1714911;83;21047;-74
2022/10/26 01:49:57;;;;;;;10.50;9.43;;;;;;;12.32;100.00;99514.18;1700098;83;21106;-73
2022/10/26 01:52:25;;;;;;;11.43;10.43;;;;;;;12.35;100.00;99520.91;1673198;84;21595;-75
2022/10/26 01:55:01;;;;;;;12.10;10.93;;;;;;;12.37;100.00;99522.28;1670826;84;21045;-73
2022/10/26 01:57:28;;;;;;;12.18;11.00;;;;;;;12.39;100.00;99523.34;1702092;82;21202;-74
2022/10/26 02:00:09;;;;;;;11.88;10.00;;;;;;;12.43;100.00;99514.99;1704876;82;21031;-74
2022/10/26 02:03:21;;;;;;;11.65;10.48;;;;;;;12.46;100.00;99520.69;1679328;84;21001;-71
2022/10/26 02:06:06;;;;;;;16.80;10.90;;;;;;;12.48;100.00;99524.45;1688934;84;21063;-76
2022/10/26 02:08:50;;;;;;;14.07;12.07;;;;;;;12.45;100.00;99519.06;1708660;82;21148;-72
2022/10/26 02:11:41;;;;;;;13.90;12.55;;;;;;;12.46;100.00;99524.73;1685862;83;21586;-77
2022/10/26 02:14:50;;;;;;;17.67;14.43;;;;;;;12.43;100.00;99525.25;1698179;83;20992;-79
2022/10/26 02:17:46;;;;;;;13.22;11.93;;;;;;;12.40;100.00;99525.79;1673681;82;20991;-77
2022/10/26 02:20:21;;;;;;;16.90;12.25;;;;;;;12.38;100.00;99530.63;1691032;83;21059;-76
2022/10/26 02:22:50;;;;;;;14.20;12.70;;;;;;;12.37;100.00;99524.17;1721614;83;21573;-77
2022/10/26 02:25:26;;;;;;;12.35;10.78;;;;;;;12.38;100.00;99529.28;1722701;83;21087;-76
2022/10/26 02:27:58;;;;;;;13.78;10.75;;;;;;;12.39;100.00;99528.74;1716225;83;20980;-76
2022/10/26 02:30:24;;;;;;;15.93;12.93;;;;;;;12.38;100.00;99536.02;1721628;83;21000;-74
2022/10/26 02:32:54;;;;;;;13.38;11.33;;;;;;;12.40;100.00;99535.23;1718080;81;21026;-83
2022/10/26 02:35:28;;;;;;;14.25;11.80;;;;;;;12.41;100.00;99530.11;1707050;83;21058;-79
2022/10/26 02:37:55;;;;;;;12.98;11.43;;;;;;;12.40;100.00;99527.14;1716728;82;21593;-78
2022/10/26 02:40:25;;;;;;;11.53;10.40;;;;;;;12.41;100.00;99525.26;1728448;82;22264;-78
2022/10/26 02:42:52;;;;;;;14.93;11.75;;;;;;;12.40;100.00;99527.14;1718758;83;21535;-78
2022/10/26 02:45:23;;;;;;;12.75;11.45;;;;;;;12.39;100.00;99525.52;1704407;82;21143;-80
2022/10/26 02:47:50;;;;;;;11.65;10.40;;;;;;;12.42;100.00;99537.67;1709179;82;21479;-79
2022/10/26 02:50:18;;;;;;;22.62;12.35;;;;;;;12.41;100.00;99533.34;1720931;82;21370;-79
2022/10/26 02:53:02;;;;;;;15.95;11.35;;;;;;;12.41;100.00;99527.95;1701017;84;20971;-79
2022/10/26 02:55:39;;;;;;;13.03;11.73;;;;;;;12.40;100.00;99525.79;1693461;84;20996;-77
2022/10/26 02:58:16;;;;;;;12.68;11.38;;;;;;;12.41;100.00;99526.60;1713525;81;21058;-77
2022/10/26 03:00:44;;;;;;;13.18;11.57;;;;;;;12.41;100.00;99539.55;1695918;83;21035;-77
2022/10/26 03:03:10;;;;;;;16.20;10.32;;;;;;;12.41;100.00;99530.11;1697333;84;21771;-78
2022/10/26 03:05:40;;;;;;;12.07;10.80;;;;;;;12.41;100.00;99538.20;1674527;84;21617;-77
2022/10/26 03:08:07;;;;;;;13.18;11.88;;;;;;;12.44;100.00;99540.36;1707577;82;21035;-78
2022/10/26 03:10:38;;;;;;;15.95;12.00;;;;;;;12.46;100.00;99545.50;1719784;82;21028;-76
2022/10/26 03:13:04;;;;;;;16.40;11.43;;;;;;;12.47;100.00;99556.00;1723466;82;20992;-76
2022/10/26 03:15:31;;;;;;;13.68;10.25;;;;;;;12.48;100.00;99540.63;1723444;82;21309;-77
2022/10/26 03:17:57;;;;;;;13.90;10.63;;;;;;;12.50;100.00;99548.75;1723312;82;21039;-78
2022/10/26 03:20:25;;;;;;;11.08;9.98;;;;;;;12.54;100.00;99543.63;1718756;83;20961;-76
2022/10/26 03:22:52;;;;;;;11.40;10.20;;;;;;;12.55;100.00;99546.59;1720709;82;21501;-75
2022/10/26 03:25:19;;;;;;;12.85;9.58;;;;;;;12.56;100.00;99552.27;1680111;82;21595;-77
2022/10/26 03:27:46;;;;;;;11.90;10.70;;;;;;;12.57;100.00;99553.88;1709034;81;21254;-77
2022/10/26 03:30:12;;;;;;;11.70;10.48;;;;;;;12.57;100.00;99550.64;1667759;84;21027;-80
2022/10/26 03:32:39;;;;;;;10.48;9.43;;;;;;;12.57;100.00;99553.88;1639474;83;21578;-78
2022/10/26 03:35:06;;;;;;;11.33;10.00;;;;;;;12.55;100.00;99550.65;1719568;82;21043;-76
2022/10/26 03:37:33;;;;;;;10.85;9.75;;;;;;;12.57;100.00;99550.64;1713637;83;21091;-78
2022/10/26 03:40:01;;;;;;;10.65;9.63;;;;;;;12.56;100.00;99538.25;1714169;83;21496;-79
2022/10/26 03:42:28;;;;;;;11.22;10.03;;;;;;;12.61;100.00;99544.20;1724946;82;21039;-78
2022/10/26 03:44:58;;;;;;;10.63;8.58;;;;;;;12.62;100.00;99546.61;1671435;83;21039;-78
2022/10/26 03:47:25;;;;;;;11.50;8.60;;;;;;;12.61;100.00;99553.64;1717560;81;20972;-81
2022/10/26 03:49:51;;;;;;;10.08;9.03;;;;;;;12.60;100.00;99547.97;1717394;82;21063;-78
2022/10/26 03:52:17;;;;;;;10.65;8.95;;;;;;;12.56;100.00;99554.44;1708681;83;21138;-79
2022/10/26 03:54:44;;;;;;;9.80;8.90;;;;;;;12.55;100.00;99553.34;1705563;83;21019;-79
2022/10/26 03:57:11;;;;;;;9.68;8.75;;;;;;;12.54;100.00;99547.67;1688983;83;21663;-82
2022/10/26 03:59:38;;;;;;;11.50;8.80;;;;;;;12.54;100.00;99554.42;1692847;83;21657;-81
2022/10/26 04:02:05;;;;;;;15.68;8.25;;;;;;;12.55;100.00;99546.59;1696345;82;22207;-78
2022/10/26 04:04:32;;;;;;;8.63;7.87;;;;;;;12.56;100.00;99546.34;1719732;82;21799;-78
2022/10/26 04:06:58;;;;;;;8.33;7.53;;;;;;;12.57;100.00;99552.52;1694130;81;21062;-79
2022/10/26 04:09:26;;;;;;;12.95;8.15;;;;;;;12.55;100.00;99550.11;1698978;83;21016;-80
2022/10/26 04:11:53;;;;;;;9.90;7.83;;;;;;;12.55;100.00;99552.00;1722082;83;21064;-77
2022/10/26 04:14:19;;;;;;;8.88;7.25;;;;;;;12.53;100.00;99543.34;1722064;83;21028;-80
2022/10/26 04:16:47;;;;;;;9.83;8.13;;;;;;;12.53;100.00;99538.77;1715235;81;21607;-77
2022/10/26 04:19:14;;;;;;;11.90;8.95;;;;;;;12.51;100.00;99532.84;1720790;83;20972;-78
2022/10/26 04:21:41;;;;;;;9.38;8.28;;;;;;;12.54;100.00;99535.53;1722039;83;21038;-77
2022/10/26 04:24:10;;;;;;;9.53;7.92;;;;;;;12.54;100.00;99540.92;1719943;82;20959;-77
2022/10/26 04:26:37;;;;;;;10.35;9.33;;;;;;;12.53;100.00;99532.02;1713121;83;21059;-79
2022/10/26 04:29:06;;;;;;;9.80;8.83;;;;;;;12.55;100.00;99530.41;1701271;82;20995;-77
2022/10/26 04:31:33;;;;;;;9.98;8.73;;;;;;;12.56;100.00;99536.09;1721827;83;21095;-79
2022/10/26 04:34:01;;;;;;;10.53;8.75;;;;;;;12.57;100.00;99529.05;1708916;83;21095;-78
2022/10/26 04:36:29;;;;;;;9.75;8.85;;;;;;;12.59;100.00;99534.20;1693414;83;20992;-76
2022/10/26 04:38:57;;;;;;;24.02;20.02;;;;;;;12.56;100.00;99538.25;1721090;81;21510;-78
2022/10/26 04:41:24;;;;;;;12.47;10.20;;;;;;;12.55;100.00;99537.16;1699616;83;21786;-79
2022/10/26 04:43:51;;;;;;;11.28;10.13;;;;;;;12.52;100.00;99528.23;1716008;82;21066;-80
2022/10/26 04:46:18;;;;;;;10.48;9.48;;;;;;;12.50;100.00;99525.01;1722810;82;21532;-79
2022/10/26 04:48:47;;;;;;;11.68;9.30;;;;;;;12.53;100.00;99532.55;1695830;83;21020;-77
2022/10/26 04:51:14;;;;;;;10.13;8.93;;;;;;;12.53;100.00;99535.25;1689250;83;21532;-80
2022/10/26 04:53:40;;;;;;;11.65;10.20;;;;;;;12.51;100.00;99539.59;1694115;84;21281;-79
2022/10/26 04:56:08;;;;;;;9.23;8.43;;;;;;;12.49;100.00;99536.87;1646539;85;21182;-80
2022/10/26 04:58:35;;;;;;;10.45;9.35;;;;;;;12.51;100.00;99532.03;1711760;83;21643;-79
2022/10/26 05:01:02;;;;;;;11.28;9.60;;;;;;;12.50;100.00;99533.91;1697579;83;21099;-79
2022/10/26 05:03:28;;;;;;;12.07;9.98;;;;;;;12.50;100.00;99541.19;1684140;83;21083;-78
2022/10/26 05:05:58;;;;;;;10.50;9.50;;;;;;;12.51;100.00;99538.23;1721878;82;21207;-79
2022/10/26 05:08:27;;;;;;;12.15;9.33;;;;;;;12.50;100.00;99540.66;1700148;82;21016;-79
2022/10/26 05:10:54;;;;;;;9.25;8.30;;;;;;;12.52;100.00;99547.11;1684986;84;21143;-76
2022/10/26 05:13:23;;;;;;;10.38;8.45;;;;;;;12.52;100.00;99548.46;1678770;84;21023;-78
2022/10/26 05:15:54;;;;;;;11.15;8.25;;;;;;;12.53;100.00;99546.86;1661381;84;21616;-78
2022/10/26 05:18:21;;;;;;;11.12;10.03;;;;;;;12.53;100.00;99544.69;1711051;83;21321;-78
2022/10/26 05:20:54;;;;;;;10.18;9.18;;;;;;;12.51;100.00;99549.03;1722451;83;21109;-78
2022/10/26 05:23:20;;;;;;;9.40;8.05;;;;;;;12.50;100.00;99566.28;1718610;82;21086;-77
2022/10/26 05:25:48;;;;;;;13.32;11.48;;;;;;;12.47;100.00;99545.78;1696204;83;20980;-78
2022/10/26 05:28:15;;;;;;;10.45;8.18;;;;;;;12.45;100.00;99554.13;1656981;84;21015;-78
2022/10/26 05:30:44;;;;;;;11.28;8.68;;;;;;;12.46;100.00;99543.62;1704692;82;21449;-77
2022/10/26 05:33:11;;;;;;;9.20;8.40;;;;;;;12.45;100.00;99557.36;1724217;83;21038;-77
2022/10/26 05:35:38;;;;;;;10.58;7.20;;;;;;;12.43;100.00;99557.61;1690652;83;21072;-80
2022/10/26 05:38:11;;;;;;;9.13;7.85;;;;;;;12.43;100.00;99556.27;1715100;81;20984;-78
2022/10/26 05:40:54;;;;;;;9.88;8.88;;;;;;;12.45;100.00;99565.45;1721404;83;21029;-80
2022/10/26 05:43:23;;;;;;;9.43;7.78;;;;;;;12.46;100.00;99561.69;1694502;83;21426;-81
2022/10/26 05:45:50;;;;;;;13.20;9.05;;;;;;;12.48;100.00;99560.86;1690913;84;22286;-81
2022/10/26 05:48:20;;;;;;;10.53;8.40;;;;;;;12.48;100.00;99573.81;1696759;82;21729;-79
2022/10/26 05:50:46;;;;;;;9.30;7.20;;;;;;;12.48;100.00;99560.33;1684124;84;20975;-81
2022/10/26 05:53:13;;;;;;;9.60;8.08;;;;;;;12.50;100.00;99564.94;1689116;84;21058;-77
2022/10/26 05:55:44;;;;;;;8.05;7.33;;;;;;;12.52;100.00;99553.86;1679322;85;21273;-81
2022/10/26 05:58:14;;;;;;;7.87;7.10;;;;;;;12.54;100.00;99561.98;1690116;83;21019;-80
2022/10/26 06:00:51;;;;;;;8.43;7.37;;;;;;;12.58;100.00;99564.41;1707298;83;20909;-80
2022/10/26 06:03:35;;;;;;;11.90;9.40;;;;;;;12.60;100.00;99555.52;1700318;83;21055;-80
2022/10/26 06:06:04;;;;;;;9.30;8.18;;;;;;;12.60;100.00;99562.27;1692691;82;21615;-81
2022/10/26 06:08:32;;;;;;;11.57;7.42;;;;;;;12.62;100.00;99573.59;1708958;83;21155;-79
2022/10/26 06:11:01;;;;;;;7.03;6.35;;;;;;;12.63;100.00;99568.47;1718221;82;22175;-77
2022/10/26 06:13:31;;;;;;;9.23;7.62;;;;;;;12.63;100.00;99582.50;1696646;83;20959;-78
2022/10/26 06:16:28;;;;;;;7.90;6.83;;;;;;;12.62;100.00;99564.14;1712042;82;30752;-81
2022/10/26 06:19:18;;;;;;;9.58;8.08;;;;;;;12.62;100.00;99583.56;1606984;87;21048;-78
2022/10/26 06:22:02;;;;;;;7.50;6.78;;;;;;;12.62;100.00;99572.77;1624126;87;21801;-79
2022/10/26 06:25:13;;;;;;;7.50;6.50;;;;;;;12.62;100.00;99580.87;1656497;83;20913;-79
2022/10/26 06:27:47;;;;;;;7.67;6.97;;;;;;;12.62;100.00;99586.27;1714399;83;21149;-81
2022/10/26 06:30:14;;;;;;;8.25;7.55;;;;;;;12.63;100.00;99587.89;1717534;82;21016;-79
2022/10/26 06:32:44;;;;;;;8.63;7.80;;;;;;;12.62;100.00;99592.47;1710861;82;21042;-81
2022/10/26 06:35:26;;;;;;;8.60;7.53;;;;;;;12.64;100.00;99588.98;1684536;83;21474;-80
2022/10/26 06:37:53;;;;;;;10.60;7.80;;;;;;;12.67;100.00;99591.14;1720835;83;21399;-77
2022/10/26 06:40:21;;;;;;;8.48;7.37;;;;;;;12.69;100.00;99596.28;1723930;83;21000;-80
2022/10/26 06:42:48;;;;;;;7.97;6.40;;;;;;;12.71;100.00;99588.71;1722250;83;22081;-79
2022/10/26 06:45:16;;;;;;;10.18;7.22;;;;;;;12.72;100.00;99610.58;1716469;82;21066;-82
2022/10/26 06:47:59;;;;;;;8.95;7.20;;;;;;;12.73;100.00;99611.40;1709261;82;22218;-82
2022/10/26 06:50:43;;;;;;;7.12;6.53;;;;;;;12.75;100.00;99606.55;1716216;82;21036;-80
2022/10/26 06:53:37;;;;;;;8.88;6.92;;;;;;;12.76;100.00;99608.19;1701833;83;21546;-77
2022/10/26 06:56:05;;;;;;;7.45;6.72;;;;;;;12.75;100.00;99603.86;1668440;83;21059;-79
2022/10/26 06:58:34;;;;;;;8.18;7.35;;;;;;;12.77;100.00;99613.30;1707849;83;21055;-80
2022/10/26 07:01:02;;;;;;;8.90;6.10;;;;;;;12.79;100.00;99607.64;1700688;83;21144;-81
2022/10/26 07:03:28;;;;;;;8.45;7.03;;;;;;;12.81;100.00;99614.38;1680184;83;21126;-85
2022/10/26 07:05:55;;;;;;;7.22;6.62;;;;;;;12.80;100.00;99610.62;1687008;82;21619;-77
2022/10/26 07:08:22;;;;;;;7.30;6.62;;;;;;;12.83;100.00;99620.87;1694071;83;21091;-80
2022/10/26 07:10:50;;;;;;;7.58;6.97;;;;;;;12.81;100.00;99623.02;1667695;83;21071;-87
2022/10/26 07:13:18;;;;;;;6.97;6.37;;;;;;;12.82;100.00;99616.01;1695311;81;21130;-87
2022/10/26 07:15:46;;;;;;;8.95;6.62;;;;;;;12.84;100.00;99621.16;1697195;81;20971;-84
2022/10/26 07:18:15;;;;;;;7.60;6.95;;;;;;;12.85;100.00;99618.20;1699536;81;21013;-84
2022/10/26 07:20:43;;;;;;;7.58;6.85;;;;;;;12.88;100.00;99620.89;1686073;83;21602;-84
2022/10/26 07:23:12;;;;;;;6.85;6.25;;;;;;;12.86;100.00;99627.89;1720377;82;21122;-84
2022/10/26 07:25:39;;;;;;;7.78;6.72;;;;;;;12.88;100.00;99631.69;1697726;83;21128;-84
2022/10/26 07:28:08;;;;;;;7.72;6.55;;;;;;;12.89;100.00;99632.78;1656712;84;21074;-84
2022/10/26 07:30:39;;;;;;;5.78;5.28;;;;;;;12.90;100.00;99634.38;1705027;83;21087;-83
2022/10/26 07:33:12;;;;;;;7.22;6.62;;;;;;;12.93;100.00;99633.05;1690267;82;21147;-89
2022/10/26 07:35:40;;;;;;;6.97;6.45;;;;;;;12.95;100.00;99636.30;1664672;83;21577;-86
2022/10/26 07:38:07;;;;;;;6.80;6.20;;;;;;;12.94;100.00;99640.08;1703097;83;21131;-85
2022/10/26 07:40:37;;;;;;;7.00;5.95;;;;;;;12.94;100.00;99644.94;1684027;83;20940;-86
2022/10/26 07:43:04;;;;;;;7.40;6.55;;;;;;;12.96;100.00;99648.70;1674855;83;21572;-85
2022/10/26 07:45:31;;;;;;;7.58;5.83;;;;;;;12.97;100.00;99640.88;1698627;82;21126;-77
2022/10/26 07:47:57;;;;;;;6.05;5.55;;;;;;;12.98;100.00;99651.42;1699294;83;21059;-74
2022/10/26 07:50:24;;;;;;;6.22;5.62;;;;;;;13.00;100.00;99654.66;1699503;83;21406;-72
2022/10/26 07:52:51;;;;;;;6.78;4.97;;;;;;;12.99;100.00;99656.29;1724095;82;21019;-75
2022/10/26 07:55:25;;;;;;;5.55;5.05;;;;;;;13.01;100.00;99661.67;1714251;82;21040;-75
2022/10/26 07:57:54;;;;;;;4.92;4.53;;;;;;;13.02;100.00;99651.70;1686215;83;21098;-86
2022/10/26 08:00:24;;;;;;;5.30;4.58;;;;;;;13.03;100.00;99656.02;1698056;82;21058;-81
2022/10/26 08:02:51;;;;;;;5.95;5.45;;;;;;;13.06;100.00;99664.39;1713843;81;21139;-79
2022/10/26 08:05:19;;;;;;;5.37;4.97;;;;;;;13.08;100.00;99668.19;1686055;83;20976;-76
2022/10/26 08:07:48;;;;;;;6.00;4.17;;;;;;;13.07;100.00;99655.22;1683956;83;21011;-77
2022/10/26 08:10:15;;;;;;;4.05;3.75;;;;;;;13.09;100.00;99665.20;1717642;82;21006;-80
2022/10/26 08:12:44;;;;;;;4.53;4.12;;;;;;;13.15;100.00;99654.44;1712958;81;21547;-78
2022/10/26 08:15:12;;;;;;;4.33;4.00;;;;;;;13.17;100.00;99649.06;1709289;82;21362;-76
2022/10/26 08:17:42;;;;;;;4.40;4.05;;;;;;;13.20;100.00;99666.06;1680491;82;21211;-77
2022/10/26 08:20:11;;;;;;;5.17;4.28;;;;;;;13.21;100.00;99679.03;1719734;82;21607;-76
2022/10/26 08:22:41;;;;;;;7.22;4.55;;;;;;;13.20;100.00;99667.42;1701294;82;21018;-74
2022/10/26 08:25:08;;;;;;;4.87;4.47;;;;;;;13.22;100.00;99662.58;1708486;83;21135;-74
2022/10/26 08:27:36;;;;;;;5.00;4.50;;;;;;;13.26;100.00;99657.44;1704762;83;21147;-76
2022/10/26 08:30:03;;;;;;;6.65;4.22;;;;;;;13.29;100.00;99663.64;1685777;83;21587;-76
2022/10/26 08:32:33;;;;;;;5.95;5.15;;;;;;;13.32;100.00;99673.40;1673682;83;21576;-79
2022/10/26 08:35:01;;;;;;;6.67;6.10;;;;;;;13.35;100.00;99664.75;1717873;83;20987;-82
2022/10/26 08:37:28;;;;;;;5.50;4.65;;;;;;;13.41;100.00;99670.44;1725342;82;21031;-82
2022/10/26 08:39:55;;;;;;;5.78;4.95;;;;;;;13.47;100.00;99664.50;1686043;83;21183;-81
2022/10/26 08:42:29;;;;;;;5.47;5.05;;;;;;;13.52;100.00;99674.74;1699554;83;21069;-79
2022/10/26 08:45:00;;;;;;;8.03;4.70;;;;;;;13.55;100.00;99672.06;1719548;83;20973;-78
2022/10/26 08:47:38;;;;;;;6.45;4.97;;;;;;;13.58;100.00;99672.86;1719167;82;21045;-82
2022/10/26 08:50:32;;;;;;;5.67;4.37;;;;;;;13.62;100.00;99677.21;1721352;82;20972;-80
2022/10/26 08:53:28;;;;;;;;;;;;;;;13.65;100.00;99680.17;1673651;84;21211;-72
2022/10/26 08:56:05;;;;;;;4.15;3.85;;;;;;;13.65;100.00;99681.53;1725732;82;20189;-78
2022/10/26 08:58:37;;;;;;;6.50;5.87;;;;;;;13.68;100.00;99684.22;1726499;82;21047;-78
2022/10/26 09:01:04;;;;;;;4.53;4.00;;;;;;;13.71;100.00;99684.51;1706270;83;21190;-78
2022/10/26 09:03:31;;;;;;;6.10;4.95;;;;;;;13.76;100.00;99683.70;1688548;84;21063;-75
2022/10/26 09:06:15;;;;;;;5.53;4.47;;;;;;;13.82;100.00;99700.16;1695199;84;21344;-76
2022/10/26 09:08:57;;;;;;;6.10;4.42;;;;;;;13.88;100.00;99689.09;1707057;83;21010;-79
2022/10/26 09:11:59;;;;;;;4.15;3.75;;;;;;;13.95;100.00;99690.17;1694397;83;21040;-77
2022/10/26 13:37:24;;;;;;;5.72;5.22;;;;;;;14.37;100.00;99779.15;1767697;78;30674;-73
2022/10/26 13:39:54;;;;;;;6.42;5.62;;;;;;;14.37;99.68;99785.91;1739178;81;21025;-77
2022/10/26 13:42:22;;;;;;;7.00;6.30;;;;;;;14.43;98.79;99781.31;1744114;82;22767;-77
2022/10/26 13:44:53;;;;;;;5.90;5.17;;;;;;;14.47;98.75;99791.32;1740168;82;21002;-80
2022/10/26 13:47:28;;;;;;;7.85;5.33;;;;;;;14.48;98.66;99784.83;1746169;80;21007;-76
2022/10/26 13:50:06;;;;;;;8.15;6.50;;;;;;;14.50;98.62;99790.77;1742402;82;20932;-77
2022/10/26 13:52:57;;;;;;;6.25;5.22;;;;;;;14.52;98.77;99788.61;1675081;84;21574;-75
2022/10/26 13:55:28;;;;;;;8.65;5.87;;;;;;;14.53;98.97;99793.48;1738915;82;21231;-77
2022/10/26 13:58:31;;;;;;;13.48;5.33;;;;;;;14.53;99.16;99788.06;1734227;81;20932;-76
2022/10/26 14:01:12;;;;;;;6.03;5.20;;;;;;;14.50;99.31;99800.23;1739722;82;20912;-75
2022/10/26 14:03:39;;;;;;;6.08;5.22;;;;;;;14.50;99.67;99798.06;1746584;82;21003;-76
2022/10/26 14:06:23;;;;;;;6.90;5.30;;;;;;;14.49;99.85;99800.50;1743884;82;21086;-78
2022/10/26 14:08:52;;;;;;;6.62;5.53;;;;;;;14.48;99.79;99808.38;1707091;82;21037;-76
2022/10/26 14:11:24;;;;;;;6.50;5.80;;;;;;;14.44;100.00;99812.14;1732323;82;21008;-74
2022/10/26 14:13:50;;;;;;;6.20;5.60;;;;;;;14.41;100.00;99819.46;1745649;82;20983;-76
2022/10/26 14:16:19;;;;;;;8.88;5.87;;;;;;;14.38;100.00;99816.77;1730043;82;22044;-73
2022/10/26 14:18:47;;;;;;;7.00;5.83;;;;;;;14.37;100.00;99817.03;1722310;82;21038;-69
2022/10/26 14:21:19;;;;;;;6.33;5.78;;;;;;;14.35;100.00;99817.80;1708078;82;21114;-73
2022/10/26 14:23:56;;;;;;;8.13;4.75;;;;;;;14.34;100.00;99826.45;1721473;82;21058;-73
2022/10/26 14:26:32;;;;;;;6.60;5.10;;;;;;;14.33;100.00;99834.33;1770460;80;21552;-73
2022/10/26 14:29:01;;;;;;;8.53;5.30;;;;;;;14.28;100.00;99833.52;1762365;80;21586;-75
2022/10/26 14:31:31;;;;;;;4.83;4.42;;;;;;;14.22;100.00;99835.40;1762939;80;20983;-73
2022/10/26 14:34:00;;;;;;;5.90;4.03;;;;;;;14.20;100.00;99839.44;1778568;79;21234;-70
2022/10/26 14:36:54;;;;;;;8.13;5.45;;;;;;;14.14;100.00;99842.70;1742478;80;21035;-70
2022/10/26 14:39:32;;;;;;;4.80;4.40;;;;;;;14.13;100.00;99845.67;1753490;81;27047;-79
2022/10/26 14:42:01;;;;;;;6.60;5.92;;;;;;;14.04;100.00;99846.75;1738844;81;21035;-80
2022/10/26 14:44:27;;;;;;;4.22;3.83;;;;;;;14.00;100.00;99850.27;1751529;80;21074;-79
2022/10/26 14:46:55;;;;;;;6.65;4.78;;;;;;;13.93;100.00;99852.67;1744786;80;21113;-80
2022/10/26 14:49:26;;;;;;;4.75;4.35;;;;;;;13.91;100.00;99845.36;1767352;80;21038;-78
2022/10/26 14:51:57;;;;;;;4.10;3.75;;;;;;;13.89;100.00;99850.78;1767506;80;21019;-80
2022/10/26 14:54:26;;;;;;;4.72;4.17;;;;;;;13.86;100.00;99849.97;1767565;80;20943;-82
2022/10/26 14:56:53;;;;;;;5.12;4.55;;;;;;;13.82;100.00;99857.78;1764318;80;21555;-82
2022/10/26 14:59:30;;;;;;;5.87;4.85;;;;;;;13.80;100.00;99853.20;1765459;79;21130;-74
2022/10/26 15:02:18;;;;;;;4.10;3.70;;;;;;;13.77;100.00;99859.12;1765821;80;21060;-74
2022/10/26 15:05:01;;;;;;;4.85;4.30;;;;;;;13.73;100.00;99859.92;1732900;81;21212;-73
2022/10/26 15:07:36;;;;;;;6.85;6.00;;;;;;;13.68;100.00;99867.47;1720771;82;21018;-79
2022/10/26 15:10:05;;;;;;;5.78;5.25;;;;;;;13.60;100.00;99872.59;1746676;82;20965;-82
2022/10/26 15:12:37;;;;;;;7.53;4.75;;;;;;;13.52;100.00;99863.11;1757219;79;21008;-79
2022/10/26 15:15:17;;;;;;;8.83;5.08;;;;;;;13.45;100.00;99865.23;1745779;81;20948;-81
2022/10/26 15:17:54;;;;;;;8.30;5.37;;;;;;;13.40;100.00;99879.53;1747019;80;20998;-79
2022/10/26 15:20:26;;;;;;;9.05;5.25;;;;;;;13.35;100.00;99875.99;1763519;80;20968;-85
2022/10/26 15:22:58;;;;;;;7.08;4.95;;;;;;;13.30;100.00;99879.48;1736857;81;21115;-82
2022/10/26 15:25:28;;;;;;;12.50;6.30;;;;;;;13.27;100.00;99875.97;1753020;81;21907;-80
2022/10/26 15:27:56;;;;;;;6.33;5.72;;;;;;;13.26;100.00;99881.09;1745400;80;20936;-81
2022/10/26 15:30:25;;;;;;;9.23;5.17;;;;;;;13.27;100.00;99883.26;1743088;81;21545;-71
2022/10/26 15:32:55;;;;;;;4.55;4.15;;;;;;;13.28;100.00;99891.64;1775833;80;21071;-71
2022/10/26 15:35:25;;;;;;;5.72;5.22;;;;;;;13.26;100.00;99891.08;1715673;79;21070;-70
2022/10/26 15:37:54;;;;;;;8.65;5.12;;;;;;;13.24;100.00;99882.41;1745225;81;21555;-71
2022/10/26 15:40:24;;;;;;;5.65;5.15;;;;;;;13.22;100.00;99889.98;1747326;80;20979;-72
2022/10/26 15:42:53;;;;;;;8.73;5.35;;;;;;;13.20;100.00;99893.47;1718700;81;21060;-69
2022/10/26 15:45:24;;;;;;;8.18;5.45;;;;;;;13.19;100.00;99892.66;1740776;80;21082;-70
2022/10/26 15:47:52;;;;;;;5.42;4.90;;;;;;;13.19;100.00;99898.62;1752302;80;21063;-73
2022/10/26 15:50:23;;;;;;;5.78;5.08;;;;;;;13.16;100.00;99899.94;1767242;81;21274;-88
2022/10/26 15:52:51;;;;;;;6.22;5.08;;;;;;;13.14;100.00;99917.49;1783309;80;20936;-87
2022/10/26 15:55:18;;;;;;;5.83;5.15;;;;;;;13.11;100.00;99913.41;1715207;81;21006;-81
2022/10/26 15:57:45;;;;;;;6.15;5.55;;;;;;;13.09;100.00;99916.33;1767048;80;20981;-81
2022/10/26 16:00:16;;;;;;;8.25;5.55;;;;;;;13.07;100.00;99923.89;1765693;80;21063;-78
2022/10/26 16:02:44;;;;;;;8.18;5.90;;;;;;;13.05;100.00;99931.43;1768453;80;21122;-79
2022/10/26 16:05:12;;;;;;;6.53;5.37;;;;;;;13.06;100.00;99924.14;1757294;80;21122;-77